createdAt,value
2018-12-17T00:01:20.665Z,-0.80
2018-12-17T00:03:48.205Z,-0.80
2018-12-17T00:06:15.725Z,-0.70
2018-12-17T00:08:43.279Z,-0.60
2018-12-17T00:11:11.010Z,-0.70
2018-12-17T00:13:38.465Z,-0.70
2018-12-17T00:16:05.919Z,-0.70
2018-12-17T00:18:33.513Z,-0.70
2018-12-17T00:21:01.008Z,-0.70
2018-12-17T00:23:28.474Z,-0.50
2018-12-17T00:25:55.929Z,-0.70
2018-12-17T00:28:23.394Z,-0.70
2018-12-17T00:30:50.849Z,-0.70
2018-12-17T00:33:18.749Z,-0.80
2018-12-17T00:35:46.700Z,-0.80
2018-12-17T00:38:14.151Z,-0.70
2018-12-17T00:40:42.237Z,-0.60
2018-12-17T00:43:09.705Z,-0.60
2018-12-17T00:45:37.162Z,-0.60
2018-12-17T00:48:04.876Z,-0.60
2018-12-17T00:50:32.514Z,-0.50
2018-12-17T00:53:00.695Z,-0.60
2018-12-17T00:55:28.435Z,-0.60
2018-12-17T00:57:55.886Z,-0.70
2018-12-17T01:00:23.329Z,-0.60
2018-12-17T01:02:51.360Z,-0.70
2018-12-17T01:05:19.117Z,-0.60
2018-12-17T01:07:47.297Z,-0.60
2018-12-17T01:10:14.808Z,-0.60
2018-12-17T01:12:42.286Z,-0.70
2018-12-17T01:15:09.765Z,-0.70
2018-12-17T01:17:37.657Z,-0.70
2018-12-17T01:20:06.206Z,-0.70
2018-12-17T01:22:33.655Z,-0.60
2018-12-17T01:25:01.112Z,-0.60
2018-12-17T01:27:28.926Z,-0.60
2018-12-17T01:29:56.384Z,-0.60
2018-12-17T01:32:24.245Z,-0.70
2018-12-17T01:34:51.973Z,-0.70
2018-12-17T01:37:19.441Z,-0.60
2018-12-17T01:39:46.906Z,-0.60
2018-12-17T01:42:14.360Z,-0.60
2018-12-17T01:44:41.825Z,-0.60
2018-12-17T01:47:10.441Z,-0.60
2018-12-17T01:49:38.525Z,-0.40
2018-12-17T01:52:06.305Z,-0.40
2018-12-17T01:54:33.778Z,-0.50
2018-12-17T01:57:01.283Z,-0.50
2018-12-17T01:59:28.941Z,-0.60
2018-12-17T02:01:56.412Z,-0.60
2018-12-17T02:04:24.281Z,-0.70
2018-12-17T02:06:51.719Z,-0.60
2018-12-17T02:09:19.174Z,-0.60
2018-12-17T02:11:46.629Z,-0.50
2018-12-17T02:14:14.091Z,-0.50
2018-12-17T02:16:41.597Z,-0.40
2018-12-17T02:19:09.594Z,-0.50
2018-12-17T02:21:37.141Z,-0.50
2018-12-17T02:24:04.637Z,-0.60
2018-12-17T02:26:32.106Z,-0.60
2018-12-17T02:28:59.633Z,-0.60
2018-12-17T02:31:27.101Z,-0.50
2018-12-17T02:33:55.069Z,-0.50
2018-12-17T02:36:22.730Z,-0.50
2018-12-17T02:38:50.181Z,-0.50
2018-12-17T02:41:17.645Z,-0.40
2018-12-17T02:43:45.209Z,-0.30
2018-12-17T02:46:12.654Z,-0.40
2018-12-17T02:48:40.685Z,-0.40
2018-12-17T02:51:08.561Z,-0.40
2018-12-17T02:53:36.030Z,-0.30
2018-12-17T02:56:03.565Z,-0.40
2018-12-17T02:58:31.375Z,-0.40
2018-12-17T03:00:59.348Z,-0.30
2018-12-17T03:03:27.129Z,-0.30
2018-12-17T03:05:54.669Z,-0.20
2018-12-17T03:08:22.155Z,-0.10
2018-12-17T03:10:49.652Z,-0.20
2018-12-17T03:13:17.129Z,-0.10
2018-12-17T03:15:44.677Z,-0.20
2018-12-17T03:18:12.129Z,-0.20
2018-12-17T03:20:39.833Z,-0.20
2018-12-17T03:23:07.590Z,-0.30
2018-12-17T03:25:35.093Z,-0.30
2018-12-17T03:28:02.544Z,-0.20
2018-12-17T03:30:30.274Z,-0.10
2018-12-17T03:32:58.030Z,0.00
2018-12-17T03:35:25.730Z,0.00
2018-12-17T03:37:53.179Z,0.10
2018-12-17T03:40:20.620Z,0.10
2018-12-17T03:42:48.067Z,0.00
2018-12-17T03:45:15.750Z,0.10
2018-12-17T03:47:43.187Z,0.10
2018-12-17T03:50:10.920Z,0.00
2018-12-17T03:52:38.381Z,-0.10
2018-12-17T03:55:05.897Z,-0.10
2018-12-17T03:57:33.356Z,0.00
2018-12-17T04:00:00.917Z,-0.10
2018-12-17T04:02:28.368Z,-0.10
2018-12-17T04:04:56.394Z,0.00
2018-12-17T04:07:23.894Z,0.00
2018-12-17T04:09:51.706Z,0.10
2018-12-17T04:12:19.208Z,0.00
2018-12-17T04:14:46.670Z,0.00
2018-12-17T04:17:14.097Z,0.10
2018-12-17T04:19:42.100Z,0.10
2018-12-17T04:22:09.557Z,0.10
2018-12-17T04:24:37.005Z,0.20
2018-12-17T04:27:04.746Z,0.10
2018-12-17T04:29:32.223Z,0.00
2018-12-17T04:31:59.956Z,0.00
2018-12-17T04:34:27.874Z,0.00
2018-12-17T04:36:55.462Z,0.00
2018-12-17T04:39:23.053Z,-0.10
2018-12-17T04:41:50.711Z,-0.10
2018-12-17T04:44:18.202Z,-0.10
2018-12-17T04:46:45.655Z,0.00
2018-12-17T04:49:13.462Z,0.00
2018-12-17T04:51:41.306Z,0.10
2018-12-17T04:54:08.787Z,0.10
2018-12-17T04:56:36.233Z,0.10
2018-12-17T04:59:04.109Z,0.10
2018-12-17T05:01:31.570Z,0.20
2018-12-17T05:03:59.203Z,0.30
2018-12-17T05:06:26.664Z,0.30
2018-12-17T05:08:54.118Z,0.40
2018-12-17T05:11:21.698Z,0.40
2018-12-17T05:13:49.153Z,0.40
2018-12-17T05:16:17.016Z,0.50
2018-12-17T05:18:44.465Z,0.40
2018-12-17T05:21:11.957Z,0.40
2018-12-17T05:23:39.410Z,0.50
2018-12-17T05:26:06.861Z,0.50
2018-12-17T05:28:34.347Z,0.40
2018-12-17T05:31:01.822Z,0.50
2018-12-17T05:33:29.419Z,0.50
2018-12-17T05:35:57.570Z,0.40
2018-12-17T05:38:25.433Z,0.40
2018-12-17T05:40:53.119Z,0.50
2018-12-17T05:43:20.579Z,0.50
2018-12-17T05:45:48.138Z,0.50
2018-12-17T05:48:15.696Z,0.40
2018-12-17T05:50:43.259Z,0.40
2018-12-17T05:53:10.710Z,0.30
2018-12-17T05:55:38.252Z,0.40
2018-12-17T05:58:05.739Z,0.50
2018-12-17T06:00:33.378Z,0.50
2018-12-17T06:03:00.842Z,0.60
2018-12-17T06:05:28.490Z,0.70
2018-12-17T06:07:55.937Z,0.70
2018-12-17T06:10:23.678Z,0.60
2018-12-17T06:12:51.130Z,0.40
2018-12-17T06:15:18.577Z,0.50
2018-12-17T06:17:46.029Z,0.40
2018-12-17T06:20:13.696Z,0.50
2018-12-17T06:22:41.210Z,0.60
2018-12-17T06:25:08.696Z,0.50
2018-12-17T06:27:37.073Z,0.60
2018-12-17T06:30:05.772Z,0.50
2018-12-17T06:32:33.515Z,0.60
2018-12-17T06:35:01.527Z,0.70
2018-12-17T06:37:29.074Z,0.50
2018-12-17T06:39:56.569Z,0.50
2018-12-17T06:42:24.474Z,0.50
2018-12-17T06:44:51.922Z,0.50
2018-12-17T06:47:19.409Z,0.60
2018-12-17T06:49:47.161Z,0.70
2018-12-17T06:52:14.593Z,0.60
2018-12-17T06:54:42.473Z,0.60
2018-12-17T06:57:10.229Z,0.80
2018-12-17T06:59:42.662Z,0.70
2018-12-17T07:02:07.681Z,0.90
2018-12-17T07:04:35.245Z,0.90
2018-12-17T07:07:02.696Z,0.90
2018-12-17T07:09:30.137Z,0.90
2018-12-17T07:11:57.611Z,0.90
2018-12-17T07:14:25.229Z,1.00
2018-12-17T07:16:52.680Z,1.00
2018-12-17T07:19:20.308Z,1.10
2018-12-17T07:21:47.797Z,0.90
2018-12-17T07:24:15.245Z,0.90
2018-12-17T07:26:42.965Z,0.90
2018-12-17T07:29:10.734Z,1.00
2018-12-17T07:31:38.187Z,1.00
2018-12-17T07:34:05.909Z,1.00
2018-12-17T07:36:33.890Z,1.10
2018-12-17T07:39:01.443Z,1.10
2018-12-17T07:41:29.134Z,1.10
2018-12-17T07:43:56.722Z,1.20
2018-12-17T07:46:24.160Z,1.10
2018-12-17T07:48:52.172Z,1.00
2018-12-17T07:51:19.693Z,1.10
2018-12-17T07:53:47.140Z,1.00
2018-12-17T07:56:14.577Z,1.00
2018-12-17T07:58:42.657Z,1.10
2018-12-17T08:01:10.156Z,1.10
2018-12-17T08:03:37.651Z,1.00
2018-12-17T08:06:05.455Z,1.10
2018-12-17T08:08:35.620Z,1.20
2018-12-17T08:11:02.489Z,1.10
2018-12-17T08:13:30.013Z,1.20
2018-12-17T08:15:57.846Z,1.10
2018-12-17T08:18:25.333Z,1.10
2018-12-17T08:20:52.997Z,1.00
2018-12-17T08:23:20.453Z,1.20
2018-12-17T08:25:48.364Z,1.10
2018-12-17T08:28:15.821Z,1.20
2018-12-17T08:30:43.309Z,1.30
2018-12-17T08:33:11.136Z,1.00
2018-12-17T08:35:38.820Z,0.80
2018-12-17T08:38:06.355Z,0.90
2018-12-17T08:40:33.793Z,0.90
2018-12-17T08:43:01.270Z,0.90
2018-12-17T08:45:30.434Z,1.00
2018-12-17T08:47:58.138Z,1.00
2018-12-17T08:50:25.915Z,1.10
2018-12-17T08:52:53.467Z,1.20
2018-12-17T08:55:21.245Z,1.10
2018-12-17T08:57:48.701Z,1.20
2018-12-17T09:00:16.337Z,1.30
2018-12-17T09:02:43.796Z,1.30
2018-12-17T09:05:11.691Z,1.20
2018-12-17T09:07:39.174Z,1.20
2018-12-17T09:10:06.801Z,1.30
2018-12-17T09:12:34.278Z,1.10
2018-12-17T09:15:01.768Z,1.30
2018-12-17T09:17:29.238Z,1.50
2018-12-17T09:19:56.918Z,1.40
2018-12-17T09:22:24.626Z,1.40
2018-12-17T09:24:52.112Z,1.40
2018-12-17T09:27:20.630Z,1.40
2018-12-17T09:29:48.425Z,1.40
2018-12-17T09:32:16.247Z,1.30
2018-12-17T09:34:43.964Z,1.40
2018-12-17T09:37:11.412Z,1.50
2018-12-17T09:39:38.864Z,1.60
2018-12-17T09:42:06.338Z,1.80
2018-12-17T09:44:33.783Z,1.70
2018-12-17T09:47:01.263Z,1.60
2018-12-17T09:49:29.878Z,1.50
2018-12-17T09:51:57.325Z,1.50
2018-12-17T09:54:24.773Z,1.40
2018-12-17T09:56:52.237Z,1.40
2018-12-17T09:59:20.366Z,1.40
2018-12-17T10:01:49.974Z,1.50
2018-12-17T10:04:17.657Z,1.60
2018-12-17T10:06:45.110Z,1.80
2018-12-17T10:09:12.559Z,1.80
2018-12-17T10:11:40.110Z,1.90
2018-12-17T10:14:07.550Z,1.90
2018-12-17T10:16:35.006Z,2.00
2018-12-17T10:19:02.734Z,1.90
2018-12-17T10:21:30.441Z,1.90
2018-12-17T10:23:58.045Z,1.90
2018-12-17T10:26:25.496Z,1.90
2018-12-17T10:28:52.962Z,1.90
2018-12-17T10:31:20.418Z,1.90
2018-12-17T10:33:48.233Z,1.90
2018-12-17T10:36:16.279Z,1.80
2018-12-17T10:38:43.722Z,1.80
2018-12-17T10:41:11.219Z,1.80
2018-12-17T10:43:38.902Z,2.00
2018-12-17T10:46:06.418Z,2.00
2018-12-17T10:48:33.867Z,2.00
2018-12-17T10:51:01.465Z,2.00
2018-12-17T10:53:28.914Z,1.90
2018-12-17T10:55:56.489Z,1.90
2018-12-17T10:58:23.946Z,2.00
